CheckWX is a tool to help pilots better visualize weather data.  It is not intended as a substitute for an official pre-flight weather briefing.

00:28:50 UTC

LFLX TAF
Châteauroux-Déols "Marcel Dassault" Airport
Châteauroux/Déols, France
TAF LFLX 142300Z 1500/1606 05004KT 9999 BKN015 TEMPO 1500/1503 3000 BR BKN003 TEMPO 1503/1606 3000 -RA BKN006

Nov-15@
00:00 UTC

Nov-15 @ 00:00 UTC

Nov-16@
06:00 UTC

Nov-16 @ 06:00 UTC

TAF LFLX 142300Z 1500/1606 05004KT 9999 BKN015
Wind
  • 050° at 4 KTS
Cloud Levels
  • Broken at 1,500' AGL

Nov-15@
00:00 UTC

Nov-15 @ 00:00 UTC

Nov-15@
03:00 UTC

Nov-15 @ 03:00 UTC

TEMPO 1500/1503 3000 BR BKN003

Temporary

Temporary Changes expected for less than half the time period

Conditions
Mist
Cloud Levels
  • Broken at 300' AGL

Nov-15@
03:00 UTC

Nov-15 @ 03:00 UTC

Nov-16@
06:00 UTC

Nov-16 @ 06:00 UTC

TEMPO 1503/1606 3000 -RA BKN006

Temporary

Temporary Changes expected for less than half the time period

Conditions
Light Rain
Cloud Levels
  • Broken at 600' AGL